sensor_id;sensor_type;location;lat;lon;timestamp;P1;durP1;ratioP1;P2;durP2;ratioP2
45198;SDS011;30941;46.422;18.772;2022-12-20T00:01:38;106.03;;;34.37;;
45198;SDS011;30941;46.422;18.772;2022-12-20T00:04:04;99.00;;;35.70;;
45198;SDS011;30941;46.422;18.772;2022-12-20T00:06:29;86.73;;;32.20;;
45198;SDS011;30941;46.422;18.772;2022-12-20T00:08:56;84.57;;;31.23;;
45198;SDS011;30941;46.422;18.772;2022-12-20T00:11:22;87.63;;;32.60;;
45198;SDS011;30941;46.422;18.772;2022-12-20T00:13:49;89.20;;;35.00;;
45198;SDS011;30941;46.422;18.772;2022-12-20T00:16:15;94.37;;;35.83;;
45198;SDS011;30941;46.422;18.772;2022-12-20T00:18:42;101.43;;;39.37;;
45198;SDS011;30941;46.422;18.772;2022-12-20T00:21:10;95.93;;;34.90;;
45198;SDS011;30941;46.422;18.772;2022-12-20T00:23:36;100.33;;;35.00;;
45198;SDS011;30941;46.422;18.772;2022-12-20T00:26:03;95.33;;;35.67;;
45198;SDS011;30941;46.422;18.772;2022-12-20T00:28:30;93.37;;;33.77;;
45198;SDS011;30941;46.422;18.772;2022-12-20T00:30:56;101.10;;;35.10;;
45198;SDS011;30941;46.422;18.772;2022-12-20T00:33:21;97.23;;;35.83;;
45198;SDS011;30941;46.422;18.772;2022-12-20T00:35:47;96.17;;;38.27;;
45198;SDS011;30941;46.422;18.772;2022-12-20T00:38:12;86.80;;;35.10;;
45198;SDS011;30941;46.422;18.772;2022-12-20T00:40:38;98.13;;;37.97;;
45198;SDS011;30941;46.422;18.772;2022-12-20T00:43:04;98.53;;;38.03;;
45198;SDS011;30941;46.422;18.772;2022-12-20T00:45:29;94.80;;;35.53;;
45198;SDS011;30941;46.422;18.772;2022-12-20T00:47:55;86.90;;;34.22;;
45198;SDS011;30941;46.422;18.772;2022-12-20T00:50:20;79.87;;;33.37;;
45198;SDS011;30941;46.422;18.772;2022-12-20T00:52:45;86.97;;;32.27;;
45198;SDS011;30941;46.422;18.772;2022-12-20T00:55:11;81.47;;;33.57;;
45198;SDS011;30941;46.422;18.772;2022-12-20T00:57:36;85.07;;;35.00;;
45198;SDS011;30941;46.422;18.772;2022-12-20T01:00:02;89.13;;;35.17;;
45198;SDS011;30941;46.422;18.772;2022-12-20T01:02:28;99.27;;;37.83;;
45198;SDS011;30941;46.422;18.772;2022-12-20T01:04:53;93.83;;;37.60;;
45198;SDS011;30941;46.422;18.772;2022-12-20T01:07:19;96.30;;;36.63;;
45198;SDS011;30941;46.422;18.772;2022-12-20T01:09:44;100.17;;;35.80;;
45198;SDS011;30941;46.422;18.772;2022-12-20T01:12:09;89.50;;;33.80;;
45198;SDS011;30941;46.422;18.772;2022-12-20T01:14:35;92.50;;;35.33;;
45198;SDS011;30941;46.422;18.772;2022-12-20T01:17:00;86.33;;;34.30;;
45198;SDS011;30941;46.422;18.772;2022-12-20T01:19:26;87.20;;;36.00;;
45198;SDS011;30941;46.422;18.772;2022-12-20T01:21:51;87.67;;;33.07;;
45198;SDS011;30941;46.422;18.772;2022-12-20T01:24:17;85.00;;;34.67;;
45198;SDS011;30941;46.422;18.772;2022-12-20T01:26:44;83.50;;;35.00;;
45198;SDS011;30941;46.422;18.772;2022-12-20T01:29:10;88.33;;;34.77;;
45198;SDS011;30941;46.422;18.772;2022-12-20T01:31:35;75.97;;;30.03;;
45198;SDS011;30941;46.422;18.772;2022-12-20T01:34:01;84.80;;;33.43;;
45198;SDS011;30941;46.422;18.772;2022-12-20T01:36:31;82.90;;;32.67;;
45198;SDS011;30941;46.422;18.772;2022-12-20T01:38:58;83.57;;;30.77;;
45198;SDS011;30941;46.422;18.772;2022-12-20T01:41:29;78.20;;;32.27;;
45198;SDS011;30941;46.422;18.772;2022-12-20T01:46:23;84.90;;;32.05;;
45198;SDS011;30941;46.422;18.772;2022-12-20T01:51:31;73.60;;;29.43;;
45198;SDS011;30941;46.422;18.772;2022-12-20T01:54:03;70.30;;;29.50;;
45198;SDS011;30941;46.422;18.772;2022-12-20T01:56:30;70.20;;;29.70;;
45198;SDS011;30941;46.422;18.772;2022-12-20T01:58:55;73.17;;;31.17;;
45198;SDS011;30941;46.422;18.772;2022-12-20T02:01:22;83.00;;;32.15;;
45198;SDS011;30941;46.422;18.772;2022-12-20T02:03:48;78.53;;;31.53;;
45198;SDS011;30941;46.422;18.772;2022-12-20T02:06:17;83.00;;;31.50;;
45198;SDS011;30941;46.422;18.772;2022-12-20T02:08:44;76.73;;;31.07;;
45198;SDS011;30941;46.422;18.772;2022-12-20T02:14:07;77.70;;;31.27;;
45198;SDS011;30941;46.422;18.772;2022-12-20T02:16:42;85.07;;;31.73;;
45198;SDS011;30941;46.422;18.772;2022-12-20T02:27:31;67.80;;;28.93;;
45198;SDS011;30941;46.422;18.772;2022-12-20T02:32:36;69.07;;;31.43;;
45198;SDS011;30941;46.422;18.772;2022-12-20T02:35:04;75.03;;;29.57;;
45198;SDS011;30941;46.422;18.772;2022-12-20T02:37:34;69.67;;;29.53;;
45198;SDS011;30941;46.422;18.772;2022-12-20T02:39:59;67.17;;;30.17;;
45198;SDS011;30941;46.422;18.772;2022-12-20T02:42:25;69.93;;;29.73;;
45198;SDS011;30941;46.422;18.772;2022-12-20T02:44:52;71.60;;;29.47;;
45198;SDS011;30941;46.422;18.772;2022-12-20T02:50:12;68.37;;;28.73;;
45198;SDS011;30941;46.422;18.772;2022-12-20T02:52:41;63.83;;;24.37;;
45198;SDS011;30941;46.422;18.772;2022-12-20T02:55:06;60.83;;;22.73;;
45198;SDS011;30941;46.422;18.772;2022-12-20T03:00:18;60.70;;;23.50;;
45198;SDS011;30941;46.422;18.772;2022-12-20T03:02:44;60.27;;;23.07;;
45198;SDS011;30941;46.422;18.772;2022-12-20T03:05:28;56.70;;;24.13;;
45198;SDS011;30941;46.422;18.772;2022-12-20T03:07:54;58.73;;;23.53;;
45198;SDS011;30941;46.422;18.772;2022-12-20T03:10:20;58.80;;;24.20;;
45198;SDS011;30941;46.422;18.772;2022-12-20T03:12:46;51.10;;;22.80;;
45198;SDS011;30941;46.422;18.772;2022-12-20T03:15:12;61.43;;;23.70;;
45198;SDS011;30941;46.422;18.772;2022-12-20T03:17:37;57.30;;;21.67;;
45198;SDS011;30941;46.422;18.772;2022-12-20T03:20:03;62.67;;;23.57;;
45198;SDS011;30941;46.422;18.772;2022-12-20T03:22:30;51.10;;;23.13;;
45198;SDS011;30941;46.422;18.772;2022-12-20T03:24:56;49.77;;;20.63;;
45198;SDS011;30941;46.422;18.772;2022-12-20T03:27:21;53.23;;;21.07;;
45198;SDS011;30941;46.422;18.772;2022-12-20T03:29:46;50.73;;;20.53;;
45198;SDS011;30941;46.422;18.772;2022-12-20T03:32:12;53.67;;;22.60;;
45198;SDS011;30941;46.422;18.772;2022-12-20T03:34:37;53.60;;;22.13;;
45198;SDS011;30941;46.422;18.772;2022-12-20T03:37:03;53.33;;;21.27;;
45198;SDS011;30941;46.422;18.772;2022-12-20T03:39:28;53.13;;;22.47;;
45198;SDS011;30941;46.422;18.772;2022-12-20T03:41:53;49.80;;;19.90;;
45198;SDS011;30941;46.422;18.772;2022-12-20T03:44:19;46.73;;;20.00;;
45198;SDS011;30941;46.422;18.772;2022-12-20T03:46:44;44.93;;;20.40;;
45198;SDS011;30941;46.422;18.772;2022-12-20T03:49:10;48.07;;;21.53;;
45198;SDS011;30941;46.422;18.772;2022-12-20T03:51:35;48.10;;;18.40;;
45198;SDS011;30941;46.422;18.772;2022-12-20T03:54:00;53.20;;;20.73;;
45198;SDS011;30941;46.422;18.772;2022-12-20T03:56:26;48.67;;;19.83;;
45198;SDS011;30941;46.422;18.772;2022-12-20T03:58:51;48.10;;;20.17;;
45198;SDS011;30941;46.422;18.772;2022-12-20T04:01:18;40.57;;;18.70;;
45198;SDS011;30941;46.422;18.772;2022-12-20T04:03:44;45.00;;;19.57;;
45198;SDS011;30941;46.422;18.772;2022-12-20T04:06:10;47.00;;;20.27;;
45198;SDS011;30941;46.422;18.772;2022-12-20T04:08:35;50.50;;;19.60;;
45198;SDS011;30941;46.422;18.772;2022-12-20T04:11:00;42.60;;;18.80;;
45198;SDS011;30941;46.422;18.772;2022-12-20T04:13:42;47.03;;;19.97;;
45198;SDS011;30941;46.422;18.772;2022-12-20T04:16:08;51.03;;;20.47;;
45198;SDS011;30941;46.422;18.772;2022-12-20T04:18:34;47.20;;;19.90;;
45198;SDS011;30941;46.422;18.772;2022-12-20T04:21:00;43.70;;;18.07;;
45198;SDS011;30941;46.422;18.772;2022-12-20T04:23:25;43.10;;;17.30;;
45198;SDS011;30941;46.422;18.772;2022-12-20T04:25:50;39.07;;;18.40;;
45198;SDS011;30941;46.422;18.772;2022-12-20T04:28:16;44.63;;;18.88;;
45198;SDS011;30941;46.422;18.772;2022-12-20T04:30:41;44.23;;;17.93;;
45198;SDS011;30941;46.422;18.772;2022-12-20T04:33:07;42.97;;;19.33;;
45198;SDS011;30941;46.422;18.772;2022-12-20T04:35:32;44.57;;;19.67;;
45198;SDS011;30941;46.422;18.772;2022-12-20T04:37:57;38.17;;;16.63;;
45198;SDS011;30941;46.422;18.772;2022-12-20T04:40:23;48.30;;;19.40;;
45198;SDS011;30941;46.422;18.772;2022-12-20T04:42:48;42.27;;;18.90;;
45198;SDS011;30941;46.422;18.772;2022-12-20T04:45:13;42.33;;;18.07;;
45198;SDS011;30941;46.422;18.772;2022-12-20T04:47:39;49.67;;;19.33;;
45198;SDS011;30941;46.422;18.772;2022-12-20T04:50:05;46.77;;;18.97;;
45198;SDS011;30941;46.422;18.772;2022-12-20T04:52:31;51.80;;;19.73;;
45198;SDS011;30941;46.422;18.772;2022-12-20T04:55:15;40.28;;;18.35;;
45198;SDS011;30941;46.422;18.772;2022-12-20T04:57:40;45.17;;;18.93;;
45198;SDS011;30941;46.422;18.772;2022-12-20T05:00:06;48.50;;;21.13;;
45198;SDS011;30941;46.422;18.772;2022-12-20T05:02:32;45.30;;;20.37;;
45198;SDS011;30941;46.422;18.772;2022-12-20T05:04:57;44.53;;;19.63;;
45198;SDS011;30941;46.422;18.772;2022-12-20T05:07:22;43.83;;;18.97;;
45198;SDS011;30941;46.422;18.772;2022-12-20T05:09:48;44.90;;;19.43;;
45198;SDS011;30941;46.422;18.772;2022-12-20T05:12:13;47.43;;;20.30;;
45198;SDS011;30941;46.422;18.772;2022-12-20T05:14:38;52.00;;;20.60;;
45198;SDS011;30941;46.422;18.772;2022-12-20T05:17:04;40.50;;;18.47;;
45198;SDS011;30941;46.422;18.772;2022-12-20T05:19:29;47.40;;;17.20;;
45198;SDS011;30941;46.422;18.772;2022-12-20T05:21:54;40.45;;;17.80;;
45198;SDS011;30941;46.422;18.772;2022-12-20T05:27:22;42.90;;;17.20;;
45198;SDS011;30941;46.422;18.772;2022-12-20T05:29:48;42.50;;;18.57;;
45198;SDS011;30941;46.422;18.772;2022-12-20T05:32:13;40.57;;;18.93;;
45198;SDS011;30941;46.422;18.772;2022-12-20T05:34:38;43.10;;;20.07;;
45198;SDS011;30941;46.422;18.772;2022-12-20T05:37:04;41.97;;;18.83;;
45198;SDS011;30941;46.422;18.772;2022-12-20T05:39:29;40.83;;;18.67;;
45198;SDS011;30941;46.422;18.772;2022-12-20T05:41:55;42.80;;;19.33;;
45198;SDS011;30941;46.422;18.772;2022-12-20T05:44:20;37.57;;;17.63;;
45198;SDS011;30941;46.422;18.772;2022-12-20T05:46:46;41.27;;;18.67;;
45198;SDS011;30941;46.422;18.772;2022-12-20T05:49:11;42.00;;;18.87;;
45198;SDS011;30941;46.422;18.772;2022-12-20T05:51:37;38.10;;;18.87;;
45198;SDS011;30941;46.422;18.772;2022-12-20T05:54:02;41.17;;;18.38;;
45198;SDS011;30941;46.422;18.772;2022-12-20T05:56:28;39.07;;;16.47;;
45198;SDS011;30941;46.422;18.772;2022-12-20T05:58:53;43.57;;;18.10;;
45198;SDS011;30941;46.422;18.772;2022-12-20T06:01:18;39.00;;;17.80;;
45198;SDS011;30941;46.422;18.772;2022-12-20T06:03:44;47.67;;;18.30;;
45198;SDS011;30941;46.422;18.772;2022-12-20T06:06:10;44.13;;;17.47;;
45198;SDS011;30941;46.422;18.772;2022-12-20T06:08:35;44.37;;;19.17;;
45198;SDS011;30941;46.422;18.772;2022-12-20T06:11:01;40.53;;;19.57;;
45198;SDS011;30941;46.422;18.772;2022-12-20T06:13:29;44.60;;;20.67;;
45198;SDS011;30941;46.422;18.772;2022-12-20T06:15:54;46.77;;;19.77;;
45198;SDS011;30941;46.422;18.772;2022-12-20T06:18:20;46.77;;;19.17;;
45198;SDS011;30941;46.422;18.772;2022-12-20T06:20:51;41.00;;;19.27;;
45198;SDS011;30941;46.422;18.772;2022-12-20T06:23:18;46.17;;;19.93;;
45198;SDS011;30941;46.422;18.772;2022-12-20T06:25:44;51.30;;;19.40;;
45198;SDS011;30941;46.422;18.772;2022-12-20T06:28:10;43.97;;;18.00;;
45198;SDS011;30941;46.422;18.772;2022-12-20T06:30:36;43.10;;;18.20;;
45198;SDS011;30941;46.422;18.772;2022-12-20T06:33:01;41.27;;;17.00;;
45198;SDS011;30941;46.422;18.772;2022-12-20T06:35:28;43.40;;;18.20;;
45198;SDS011;30941;46.422;18.772;2022-12-20T06:37:53;43.67;;;18.27;;
45198;SDS011;30941;46.422;18.772;2022-12-20T06:40:19;40.23;;;18.33;;
45198;SDS011;30941;46.422;18.772;2022-12-20T06:42:44;45.30;;;18.80;;
45198;SDS011;30941;46.422;18.772;2022-12-20T06:45:10;48.20;;;19.43;;
45198;SDS011;30941;46.422;18.772;2022-12-20T06:47:35;40.93;;;18.47;;
45198;SDS011;30941;46.422;18.772;2022-12-20T06:50:01;45.70;;;19.47;;
45198;SDS011;30941;46.422;18.772;2022-12-20T06:52:28;44.70;;;18.20;;
45198;SDS011;30941;46.422;18.772;2022-12-20T06:54:53;42.77;;;19.03;;
45198;SDS011;30941;46.422;18.772;2022-12-20T06:57:19;46.67;;;19.37;;
45198;SDS011;30941;46.422;18.772;2022-12-20T06:59:44;44.03;;;18.20;;
45198;SDS011;30941;46.422;18.772;2022-12-20T07:02:10;40.77;;;17.93;;
45198;SDS011;30941;46.422;18.772;2022-12-20T07:04:36;40.77;;;18.63;;
45198;SDS011;30941;46.422;18.772;2022-12-20T07:07:03;45.00;;;19.03;;
45198;SDS011;30941;46.422;18.772;2022-12-20T07:09:29;45.03;;;17.63;;
45198;SDS011;30941;46.422;18.772;2022-12-20T07:11:55;43.83;;;18.67;;
45198;SDS011;30941;46.422;18.772;2022-12-20T07:14:20;47.00;;;18.93;;
45198;SDS011;30941;46.422;18.772;2022-12-20T07:16:46;48.90;;;20.13;;
45198;SDS011;30941;46.422;18.772;2022-12-20T07:19:12;45.40;;;18.53;;
45198;SDS011;30941;46.422;18.772;2022-12-20T07:21:38;53.67;;;19.83;;
45198;SDS011;30941;46.422;18.772;2022-12-20T07:24:03;43.43;;;19.77;;
45198;SDS011;30941;46.422;18.772;2022-12-20T07:26:29;43.00;;;18.50;;
45198;SDS011;30941;46.422;18.772;2022-12-20T07:28:55;45.27;;;18.40;;
45198;SDS011;30941;46.422;18.772;2022-12-20T07:31:20;44.90;;;18.87;;
45198;SDS011;30941;46.422;18.772;2022-12-20T07:33:46;41.77;;;17.90;;
45198;SDS011;30941;46.422;18.772;2022-12-20T07:36:12;47.33;;;19.87;;
45198;SDS011;30941;46.422;18.772;2022-12-20T07:38:38;47.83;;;21.03;;
45198;SDS011;30941;46.422;18.772;2022-12-20T07:41:07;40.53;;;19.17;;
45198;SDS011;30941;46.422;18.772;2022-12-20T07:43:33;46.70;;;19.87;;
45198;SDS011;30941;46.422;18.772;2022-12-20T07:45:59;46.37;;;19.57;;
45198;SDS011;30941;46.422;18.772;2022-12-20T07:48:24;46.07;;;19.10;;
45198;SDS011;30941;46.422;18.772;2022-12-20T07:50:51;41.73;;;18.10;;
45198;SDS011;30941;46.422;18.772;2022-12-20T07:53:18;42.87;;;18.90;;
45198;SDS011;30941;46.422;18.772;2022-12-20T07:55:44;44.77;;;19.23;;
45198;SDS011;30941;46.422;18.772;2022-12-20T07:58:09;44.27;;;18.37;;
45198;SDS011;30941;46.422;18.772;2022-12-20T08:00:36;45.07;;;19.20;;
45198;SDS011;30941;46.422;18.772;2022-12-20T08:03:10;43.10;;;18.60;;
45198;SDS011;30941;46.422;18.772;2022-12-20T08:05:39;50.33;;;19.53;;
45198;SDS011;30941;46.422;18.772;2022-12-20T08:08:06;43.00;;;18.80;;
45198;SDS011;30941;46.422;18.772;2022-12-20T08:10:32;39.63;;;17.33;;
45198;SDS011;30941;46.422;18.772;2022-12-20T08:12:58;35.63;;;16.77;;
45198;SDS011;30941;46.422;18.772;2022-12-20T08:15:24;39.37;;;17.90;;
45198;SDS011;30941;46.422;18.772;2022-12-20T08:17:49;39.63;;;17.50;;
45198;SDS011;30941;46.422;18.772;2022-12-20T08:20:15;43.57;;;18.70;;
45198;SDS011;30941;46.422;18.772;2022-12-20T08:22:40;38.97;;;16.90;;
45198;SDS011;30941;46.422;18.772;2022-12-20T08:25:06;39.73;;;16.03;;
45198;SDS011;30941;46.422;18.772;2022-12-20T08:27:32;36.30;;;16.70;;
45198;SDS011;30941;46.422;18.772;2022-12-20T08:29:58;37.33;;;16.43;;
45198;SDS011;30941;46.422;18.772;2022-12-20T08:32:23;37.90;;;17.50;;
45198;SDS011;30941;46.422;18.772;2022-12-20T08:34:48;36.00;;;17.23;;
45198;SDS011;30941;46.422;18.772;2022-12-20T08:37:17;37.27;;;16.67;;
45198;SDS011;30941;46.422;18.772;2022-12-20T08:39:42;35.13;;;16.60;;
45198;SDS011;30941;46.422;18.772;2022-12-20T08:42:08;37.00;;;17.60;;
45198;SDS011;30941;46.422;18.772;2022-12-20T08:44:34;35.57;;;15.83;;
45198;SDS011;30941;46.422;18.772;2022-12-20T08:46:59;42.07;;;18.07;;
45198;SDS011;30941;46.422;18.772;2022-12-20T08:49:24;41.73;;;17.87;;
45198;SDS011;30941;46.422;18.772;2022-12-20T08:51:50;38.27;;;17.67;;
45198;SDS011;30941;46.422;18.772;2022-12-20T08:54:15;38.17;;;17.50;;
45198;SDS011;30941;46.422;18.772;2022-12-20T08:56:41;42.43;;;18.63;;
45198;SDS011;30941;46.422;18.772;2022-12-20T08:59:07;38.13;;;16.87;;
45198;SDS011;30941;46.422;18.772;2022-12-20T09:01:32;35.23;;;16.07;;
45198;SDS011;30941;46.422;18.772;2022-12-20T09:03:58;36.63;;;17.30;;
45198;SDS011;30941;46.422;18.772;2022-12-20T09:06:24;37.40;;;17.73;;
45198;SDS011;30941;46.422;18.772;2022-12-20T09:08:49;38.60;;;17.27;;
45198;SDS011;30941;46.422;18.772;2022-12-20T09:11:17;37.37;;;18.33;;
45198;SDS011;30941;46.422;18.772;2022-12-20T09:13:44;39.08;;;18.40;;
45198;SDS011;30941;46.422;18.772;2022-12-20T09:16:12;34.22;;;15.30;;
45198;SDS011;30941;46.422;18.772;2022-12-20T09:18:38;35.67;;;16.77;;
45198;SDS011;30941;46.422;18.772;2022-12-20T09:21:04;40.55;;;16.90;;
45198;SDS011;30941;46.422;18.772;2022-12-20T09:23:31;32.73;;;14.67;;
45198;SDS011;30941;46.422;18.772;2022-12-20T09:26:00;33.55;;;16.45;;
45198;SDS011;30941;46.422;18.772;2022-12-20T09:28:31;37.53;;;17.67;;
45198;SDS011;30941;46.422;18.772;2022-12-20T09:31:00;42.83;;;17.40;;
45198;SDS011;30941;46.422;18.772;2022-12-20T09:33:27;31.90;;;15.93;;
45198;SDS011;30941;46.422;18.772;2022-12-20T09:35:53;32.13;;;16.48;;
45198;SDS011;30941;46.422;18.772;2022-12-20T09:38:18;39.63;;;17.73;;
45198;SDS011;30941;46.422;18.772;2022-12-20T09:40:45;30.10;;;16.50;;
45198;SDS011;30941;46.422;18.772;2022-12-20T09:43:12;33.05;;;16.15;;
45198;SDS011;30941;46.422;18.772;2022-12-20T09:45:39;31.15;;;15.18;;
45198;SDS011;30941;46.422;18.772;2022-12-20T09:48:05;35.75;;;16.25;;
45198;SDS011;30941;46.422;18.772;2022-12-20T09:53:32;33.40;;;15.70;;
45198;SDS011;30941;46.422;18.772;2022-12-20T09:56:13;30.63;;;15.98;;
45198;SDS011;30941;46.422;18.772;2022-12-20T10:01:27;33.33;;;15.50;;
45198;SDS011;30941;46.422;18.772;2022-12-20T10:03:55;32.00;;;15.70;;
45198;SDS011;30941;46.422;18.772;2022-12-20T10:14:53;34.22;;;15.40;;
45198;SDS011;30941;46.422;18.772;2022-12-20T10:23:10;35.10;;;16.85;;
45198;SDS011;30941;46.422;18.772;2022-12-20T10:25:48;33.88;;;15.60;;
45198;SDS011;30941;46.422;18.772;2022-12-20T10:28:14;33.58;;;15.60;;
45198;SDS011;30941;46.422;18.772;2022-12-20T10:30:40;34.17;;;16.30;;
45198;SDS011;30941;46.422;18.772;2022-12-20T10:33:24;33.97;;;16.88;;
45198;SDS011;30941;46.422;18.772;2022-12-20T10:35:51;38.78;;;17.80;;
45198;SDS011;30941;46.422;18.772;2022-12-20T10:38:17;28.90;;;15.02;;
45198;SDS011;30941;46.422;18.772;2022-12-20T10:43:14;31.20;;;14.98;;
45198;SDS011;30941;46.422;18.772;2022-12-20T10:58:52;33.60;;;16.48;;
45198;SDS011;30941;46.422;18.772;2022-12-20T11:01:35;33.50;;;16.30;;
45198;SDS011;30941;46.422;18.772;2022-12-20T11:04:19;34.63;;;16.50;;
45198;SDS011;30941;46.422;18.772;2022-12-20T11:06:53;27.50;;;13.82;;
45198;SDS011;30941;46.422;18.772;2022-12-20T11:09:26;33.30;;;16.58;;
45198;SDS011;30941;46.422;18.772;2022-12-20T11:11:58;28.42;;;16.17;;
45198;SDS011;30941;46.422;18.772;2022-12-20T11:14:25;32.88;;;17.15;;
45198;SDS011;30941;46.422;18.772;2022-12-20T11:16:52;33.22;;;17.08;;
45198;SDS011;30941;46.422;18.772;2022-12-20T11:19:34;30.27;;;15.48;;
45198;SDS011;30941;46.422;18.772;2022-12-20T11:30:19;34.30;;;17.52;;
45198;SDS011;30941;46.422;18.772;2022-12-20T11:33:00;32.95;;;16.25;;
45198;SDS011;30941;46.422;18.772;2022-12-20T11:43:58;32.67;;;15.32;;
45198;SDS011;30941;46.422;18.772;2022-12-20T11:47:19;32.65;;;17.10;;
45198;SDS011;30941;46.422;18.772;2022-12-20T11:52:02;34.75;;;18.65;;
45198;SDS011;30941;46.422;18.772;2022-12-20T11:57:17;33.60;;;16.98;;
45198;SDS011;30941;46.422;18.772;2022-12-20T12:05:41;35.65;;;16.63;;
45198;SDS011;30941;46.422;18.772;2022-12-20T12:08:11;33.78;;;16.65;;
45198;SDS011;30941;46.422;18.772;2022-12-20T12:10:41;38.50;;;19.17;;
45198;SDS011;30941;46.422;18.772;2022-12-20T12:13:28;35.90;;;17.63;;
45198;SDS011;30941;46.422;18.772;2022-12-20T12:18:24;37.67;;;18.70;;
45198;SDS011;30941;46.422;18.772;2022-12-20T12:23:41;35.03;;;17.77;;
45198;SDS011;30941;46.422;18.772;2022-12-20T12:28:55;47.75;;;22.17;;
45198;SDS011;30941;46.422;18.772;2022-12-20T12:31:25;48.95;;;23.35;;
45198;SDS011;30941;46.422;18.772;2022-12-20T12:33:58;52.25;;;23.42;;
45198;SDS011;30941;46.422;18.772;2022-12-20T12:47:38;52.35;;;24.27;;
45198;SDS011;30941;46.422;18.772;2022-12-20T12:50:15;46.17;;;22.85;;
45198;SDS011;30941;46.422;18.772;2022-12-20T12:52:50;46.17;;;24.02;;
45198;SDS011;30941;46.422;18.772;2022-12-20T12:55:36;50.60;;;25.33;;
45198;SDS011;30941;46.422;18.772;2022-12-20T12:58:13;52.38;;;24.50;;
45198;SDS011;30941;46.422;18.772;2022-12-20T13:11:35;51.05;;;25.75;;
45198;SDS011;30941;46.422;18.772;2022-12-20T13:16:41;60.08;;;30.23;;
45198;SDS011;30941;46.422;18.772;2022-12-20T13:19:14;95.70;;;47.47;;
45198;SDS011;30941;46.422;18.772;2022-12-20T13:21:41;85.90;;;39.50;;
45198;SDS011;30941;46.422;18.772;2022-12-20T13:26:52;69.65;;;30.85;;
45198;SDS011;30941;46.422;18.772;2022-12-20T13:29:25;59.60;;;26.90;;
45198;SDS011;30941;46.422;18.772;2022-12-20T13:31:52;61.55;;;29.60;;
45198;SDS011;30941;46.422;18.772;2022-12-20T13:37:24;50.50;;;24.35;;
45198;SDS011;30941;46.422;18.772;2022-12-20T13:39:53;52.33;;;24.63;;
45198;SDS011;30941;46.422;18.772;2022-12-20T13:45:02;58.17;;;25.92;;
45198;SDS011;30941;46.422;18.772;2022-12-20T13:47:30;50.45;;;24.08;;
45198;SDS011;30941;46.422;18.772;2022-12-20T13:50:18;55.00;;;26.55;;
45198;SDS011;30941;46.422;18.772;2022-12-20T13:52:52;57.50;;;27.42;;
45198;SDS011;30941;46.422;18.772;2022-12-20T13:55:29;55.05;;;25.00;;
45198;SDS011;30941;46.422;18.772;2022-12-20T13:57:56;51.17;;;25.52;;
45198;SDS011;30941;46.422;18.772;2022-12-20T14:00:24;50.30;;;25.33;;
45198;SDS011;30941;46.422;18.772;2022-12-20T14:02:50;57.08;;;26.55;;
45198;SDS011;30941;46.422;18.772;2022-12-20T14:05:22;57.45;;;26.30;;
45198;SDS011;30941;46.422;18.772;2022-12-20T14:07:58;62.95;;;29.67;;
45198;SDS011;30941;46.422;18.772;2022-12-20T14:10:30;85.40;;;36.15;;
45198;SDS011;30941;46.422;18.772;2022-12-20T14:12:56;74.40;;;33.63;;
45198;SDS011;30941;46.422;18.772;2022-12-20T14:15:26;63.30;;;29.42;;
45198;SDS011;30941;46.422;18.772;2022-12-20T14:17:53;72.78;;;33.65;;
45198;SDS011;30941;46.422;18.772;2022-12-20T14:20:22;65.28;;;30.88;;
45198;SDS011;30941;46.422;18.772;2022-12-20T14:23:08;70.78;;;32.67;;
45198;SDS011;30941;46.422;18.772;2022-12-20T14:29:03;59.35;;;26.75;;
45198;SDS011;30941;46.422;18.772;2022-12-20T14:34:11;78.90;;;32.80;;
45198;SDS011;30941;46.422;18.772;2022-12-20T14:36:41;69.63;;;29.73;;
45198;SDS011;30941;46.422;18.772;2022-12-20T14:39:27;70.05;;;31.13;;
45198;SDS011;30941;46.422;18.772;2022-12-20T14:44:32;62.95;;;29.52;;
45198;SDS011;30941;46.422;18.772;2022-12-20T14:49:49;71.95;;;29.67;;
45198;SDS011;30941;46.422;18.772;2022-12-20T14:55:01;69.13;;;31.20;;
45198;SDS011;30941;46.422;18.772;2022-12-20T15:02:48;72.20;;;33.28;;
45198;SDS011;30941;46.422;18.772;2022-12-20T15:08:18;59.15;;;28.45;;
45198;SDS011;30941;46.422;18.772;2022-12-20T15:10:49;58.05;;;28.10;;
45198;SDS011;30941;46.422;18.772;2022-12-20T15:13:34;56.63;;;27.83;;
45198;SDS011;30941;46.422;18.772;2022-12-20T15:16:02;60.05;;;27.83;;
45198;SDS011;30941;46.422;18.772;2022-12-20T15:18:38;59.03;;;27.13;;
45198;SDS011;30941;46.422;18.772;2022-12-20T15:23:31;69.97;;;29.85;;
45198;SDS011;30941;46.422;18.772;2022-12-20T15:25:57;67.45;;;29.13;;
45198;SDS011;30941;46.422;18.772;2022-12-20T15:28:23;65.03;;;29.55;;
45198;SDS011;30941;46.422;18.772;2022-12-20T15:30:50;67.25;;;29.75;;
45198;SDS011;30941;46.422;18.772;2022-12-20T15:33:17;77.03;;;32.40;;
45198;SDS011;30941;46.422;18.772;2022-12-20T15:35:45;70.55;;;32.33;;
45198;SDS011;30941;46.422;18.772;2022-12-20T15:38:14;67.25;;;30.90;;
45198;SDS011;30941;46.422;18.772;2022-12-20T15:40:42;71.75;;;33.63;;
45198;SDS011;30941;46.422;18.772;2022-12-20T15:43:12;71.90;;;33.45;;
45198;SDS011;30941;46.422;18.772;2022-12-20T15:45:40;66.65;;;29.52;;
45198;SDS011;30941;46.422;18.772;2022-12-20T15:48:09;69.00;;;31.00;;
45198;SDS011;30941;46.422;18.772;2022-12-20T15:50:37;63.45;;;28.65;;
45198;SDS011;30941;46.422;18.772;2022-12-20T15:53:04;61.63;;;28.85;;
45198;SDS011;30941;46.422;18.772;2022-12-20T15:55:29;55.88;;;27.23;;
45198;SDS011;30941;46.422;18.772;2022-12-20T15:57:54;68.32;;;30.58;;
45198;SDS011;30941;46.422;18.772;2022-12-20T16:00:20;65.25;;;30.63;;
45198;SDS011;30941;46.422;18.772;2022-12-20T16:02:45;70.90;;;32.65;;
45198;SDS011;30941;46.422;18.772;2022-12-20T16:05:12;66.50;;;30.20;;
45198;SDS011;30941;46.422;18.772;2022-12-20T16:07:37;67.15;;;31.63;;
45198;SDS011;30941;46.422;18.772;2022-12-20T16:10:03;69.25;;;30.33;;
45198;SDS011;30941;46.422;18.772;2022-12-20T16:12:30;73.70;;;32.28;;
45198;SDS011;30941;46.422;18.772;2022-12-20T16:14:57;68.30;;;31.05;;
45198;SDS011;30941;46.422;18.772;2022-12-20T16:17:23;76.35;;;33.42;;
45198;SDS011;30941;46.422;18.772;2022-12-20T16:19:48;66.70;;;32.17;;
45198;SDS011;30941;46.422;18.772;2022-12-20T16:22:15;66.55;;;30.63;;
45198;SDS011;30941;46.422;18.772;2022-12-20T16:24:41;69.13;;;30.83;;
45198;SDS011;30941;46.422;18.772;2022-12-20T16:27:07;74.90;;;31.35;;
45198;SDS011;30941;46.422;18.772;2022-12-20T16:29:33;77.93;;;33.30;;
45198;SDS011;30941;46.422;18.772;2022-12-20T16:31:58;81.10;;;34.85;;
45198;SDS011;30941;46.422;18.772;2022-12-20T16:34:24;79.30;;;35.72;;
45198;SDS011;30941;46.422;18.772;2022-12-20T16:36:49;76.30;;;35.40;;
45198;SDS011;30941;46.422;18.772;2022-12-20T16:39:16;81.07;;;34.47;;
45198;SDS011;30941;46.422;18.772;2022-12-20T16:41:41;82.30;;;34.57;;
45198;SDS011;30941;46.422;18.772;2022-12-20T16:44:17;78.38;;;34.78;;
45198;SDS011;30941;46.422;18.772;2022-12-20T16:46:43;82.35;;;33.08;;
45198;SDS011;30941;46.422;18.772;2022-12-20T16:49:10;75.72;;;32.83;;